Time;durP1;ratioP1;P1;durP2;ratioP2;P2;SDS_P1;SDS_P2;PMS_P1;PMS_P2;Temp;Humidity;BMP_temperature;BMP_pressure;BME280_temperature;BME280_humidity;BME280_pressure;Samples;Min_cycle;Max_cycle;Signal;HPM_P1;HPM_P2
2023/07/22 00:00:06;;;;;;;;;;;;;;;25.01;53.49;100330.91;7395519;19;1295;-41
2023/07/22 00:02:36;;;;;;;;;;;;;;;25.01;54.00;100333.63;7395992;19;1954;-41
2023/07/22 00:05:04;;;;;;;;;;;;;;;25.10;53.39;100322.69;7395867;19;1414;-41
2023/07/22 00:07:33;;;;;;;;;;;;;;;25.11;53.69;100319.81;7395332;19;1870;-46
2023/07/22 00:10:01;;;;;;;;;;;;;;;25.17;53.32;100324.47;7394653;19;1229;-41
2023/07/22 00:12:30;;;;;;;;;;;;;;;25.06;54.40;100337.63;7395447;19;1532;-41
2023/07/22 00:14:59;;;;;;;;;;;;;;;25.14;53.87;100342.94;7395022;19;1458;-41
2023/07/22 00:17:30;;;;;;;;;;;;;;;25.12;53.62;100345.81;7393918;19;1463;-41
2023/07/22 00:19:58;;;;;;;;;;;;;;;25.05;53.97;100344.91;7392679;19;1291;-41
2023/07/22 00:22:26;;;;;;;;;;;;;;;25.09;54.11;100369.72;7394842;19;1247;-41
2023/07/22 00:24:55;;;;;;;;;;;;;;;25.07;54.41;100366.34;7394386;19;1267;-41
2023/07/22 00:27:23;;;;;;;;;;;;;;;25.08;53.75;100385.09;7395030;19;1859;-41
2023/07/22 00:29:51;;;;;;;;;;;;;;;25.05;53.88;100428.78;7395235;19;1795;-41
2023/07/22 00:32:20;;;;;;;;;;;;;;;25.05;53.61;100580.28;7401523;19;1181;-41
2023/07/22 00:34:50;;;;;;;;;;;;;;;25.09;53.28;100657.38;7402373;19;1215;-41
2023/07/22 00:37:19;;;;;;;;;;;;;;;25.10;53.47;100599.50;7403290;19;1547;-42
2023/07/22 00:39:47;;;;;;;;;;;;;;;25.15;53.51;100593.59;7402117;19;1497;-41
2023/07/22 00:42:16;;;;;;;;;;;;;;;25.11;53.70;100676.09;7402108;19;1537;-41
2023/07/22 00:44:44;;;;;;;;;;;;;;;25.22;53.29;100645.13;7401674;19;1264;-41
2023/07/22 00:47:13;;;;;;;;;;;;;;;25.21;52.92;100652.41;7400630;19;1863;-41
2023/07/22 00:49:41;;;;;;;;;;;;;;;25.27;54.25;100637.31;7401465;19;1271;-41
2023/07/22 00:52:12;;;;;;;;;;;;;;;25.42;53.18;100642.78;7401328;19;1454;-41
2023/07/22 00:54:40;;;;;;;;;;;;;;;25.36;52.85;100623.53;7402251;19;1139;-41
2023/07/22 00:57:09;;;;;;;;;;;;;;;25.46;53.77;100641.41;7400833;19;1870;-41
2023/07/22 00:59:37;;;;;;;;;;;;;;;25.48;53.30;100633.94;7401856;19;1628;-41
2023/07/22 01:02:06;;;;;;;;;;;;;;;25.38;53.45;100597.13;7401641;19;1587;-41
2023/07/22 01:04:36;;;;;;;;;;;;;;;25.43;53.46;100631.78;7401877;19;1234;-41
2023/07/22 01:07:06;;;;;;;;;;;;;;;25.40;54.38;100624.84;7400844;19;1863;-41
2023/07/22 01:09:39;;;;;;;;;;;;;;;25.34;53.78;100617.47;7400677;19;1395;-41
2023/07/22 01:12:08;;;;;;;;;;;;;;;25.23;54.38;100598.97;7400813;19;1377;-41
2023/07/22 01:14:37;;;;;;;;;;;;;;;25.24;54.56;100597.91;7400703;19;1255;-41
2023/07/22 01:17:05;;;;;;;;;;;;;;;25.20;55.12;100591.16;7400013;19;1217;-41
2023/07/22 01:19:34;;;;;;;;;;;;;;;25.18;55.47;100579.69;7399241;19;1404;-41
2023/07/22 01:22:04;;;;;;;;;;;;;;;25.17;55.79;100569.88;7401284;19;1380;-41
2023/07/22 01:24:35;;;;;;;;;;;;;;;25.24;55.62;100538.38;7398582;19;1823;-41
2023/07/22 01:27:08;;;;;;;;;;;;;;;25.23;56.00;100525.88;7399537;19;1849;-41
2023/07/22 01:29:36;;;;;;;;;;;;;;;25.24;56.31;100524.03;7399728;19;1237;-41
2023/07/22 01:32:05;;;;;;;;;;;;;;;25.19;56.14;100538.06;7399404;19;1539;-41
2023/07/22 01:34:33;;;;;;;;;;;;;;;25.24;56.16;100557.31;7401022;19;1321;-41
2023/07/22 01:37:04;;;;;;;;;;;;;;;25.35;56.34;100558.78;7400316;19;1599;-41
2023/07/22 01:39:35;;;;;;;;;;;;;;;25.39;56.22;100574.47;7399730;19;1431;-41
2023/07/22 01:42:03;;;;;;;;;;;;;;;25.34;56.49;100574.16;7399225;19;1249;-41
2023/07/22 01:44:32;;;;;;;;;;;;;;;25.42;56.61;100585.94;7400045;19;1794;-41
2023/07/22 01:47:00;;;;;;;;;;;;;;;25.43;56.31;100588.47;7398964;19;1857;-41
2023/07/22 01:49:29;;;;;;;;;;;;;;;25.34;56.94;100584.16;7400643;19;1538;-41
2023/07/22 01:51:57;;;;;;;;;;;;;;;25.33;57.12;100580.59;7399703;19;1190;-41
2023/07/22 01:54:25;;;;;;;;;;;;;;;25.37;57.18;100570.25;7399190;19;1940;-41
2023/07/22 01:56:57;;;;;;;;;;;;;;;25.44;56.60;100568.50;7399308;19;1282;-41
2023/07/22 01:59:25;;;;;;;;;;;;;;;25.47;56.46;100557.31;7399317;19;1525;-41
2023/07/22 02:01:53;;;;;;;;;;;;;;;25.49;57.13;100549.00;7398649;19;1217;-41
2023/07/22 02:04:22;;;;;;;;;;;;;;;25.50;56.84;100570.47;7399952;19;1233;-41
2023/07/22 02:06:50;;;;;;;;;;;;;;;25.44;56.59;100556.81;7399193;19;1466;-41
2023/07/22 02:09:19;;;;;;;;;;;;;;;25.26;57.40;100549.88;7397057;19;1853;-41
2023/07/22 02:11:48;;;;;;;;;;;;;;;25.21;57.38;100549.56;7399468;19;1398;-41
2023/07/22 02:14:19;;;;;;;;;;;;;;;25.16;57.98;100535.72;7399771;19;1441;-41
2023/07/22 02:16:47;;;;;;;;;;;;;;;25.19;57.62;100562.44;7399019;19;1458;-41
2023/07/22 02:19:16;;;;;;;;;;;;;;;25.05;58.12;100583.00;7396503;19;1504;-40
2023/07/22 02:21:44;;;;;;;;;;;;;;;25.00;58.02;100566.44;7398413;19;1268;-41
2023/07/22 02:24:12;;;;;;;;;;;;;;;25.05;57.99;100577.59;7397861;19;1523;-40
2023/07/22 02:26:41;;;;;;;;;;;;;;;25.08;58.17;100568.25;7399011;19;1930;-41
2023/07/22 02:29:10;;;;;;;;;;;;;;;25.05;58.05;100563.19;7395782;19;1899;-41
2023/07/22 02:31:41;;;;;;;;;;;;;;;24.98;58.11;100553.09;7397892;19;1359;-41
2023/07/22 02:34:09;;;;;;;;;;;;;;;24.99;58.03;100559.38;7398858;19;1722;-41
2023/07/22 02:36:37;;;;;;;;;;;;;;;24.87;58.63;100550.81;7397677;19;1632;-41
2023/07/22 02:39:09;;;;;;;;;;;;;;;24.83;59.00;100560.31;7398120;19;1194;-41
2023/07/22 02:41:38;;;;;;;;;;;;;;;24.87;58.51;100548.13;7398780;19;1214;-41
2023/07/22 02:44:08;;;;;;;;;;;;;;;24.94;58.71;100559.88;7398869;19;1393;-40
2023/07/22 02:46:36;;;;;;;;;;;;;;;25.02;58.68;100576.06;7397027;19;1509;-41
2023/07/22 02:49:07;;;;;;;;;;;;;;;25.02;58.68;100562.53;7396440;19;1861;-41
2023/07/22 02:51:35;;;;;;;;;;;;;;;24.97;58.76;100567.66;7397359;19;1549;-41
2023/07/22 02:54:03;;;;;;;;;;;;;;;24.81;59.03;100557.78;7395509;19;1461;-41
2023/07/22 02:56:32;;;;;;;;;;;;;;;24.89;59.03;100565.00;7397132;19;1437;-41
2023/07/22 02:59:00;;;;;;;;;;;;;;;24.95;58.64;100553.47;7396870;19;1506;-41
2023/07/22 03:01:29;;;;;;;;;;;;;;;25.08;58.62;100552.84;7397150;19;1343;-41
2023/07/22 03:03:57;;;;;;;;;;;;;;;25.01;58.56;100550.03;7397076;19;1177;-41
2023/07/22 03:06:28;;;;;;;;;;;;;;;25.02;58.56;100559.81;7397021;19;2125;-41
2023/07/22 03:08:57;;;;;;;;;;;;;;;24.86;58.91;100548.28;7395717;19;1855;-41
2023/07/22 03:11:26;;;;;;;;;;;;;;;24.84;58.99;100553.88;7397221;19;1167;-41
2023/07/22 03:13:55;;;;;;;;;;;;;;;24.94;58.81;100550.94;7397514;19;1783;-41
2023/07/22 03:16:24;;;;;;;;;;;;;;;24.79;59.11;100554.44;7397264;19;1855;-41
2023/07/22 03:18:52;;;;;;;;;;;;;;;24.79;59.09;100553.59;7395296;19;1592;-40
2023/07/22 03:21:21;;;;;;;;;;;;;;;24.88;58.99;100557.06;7396948;19;1633;-41
2023/07/22 03:23:51;;;;;;;;;;;;;;;24.68;59.19;100551.28;7397249;19;1209;-41
2023/07/22 03:26:20;;;;;;;;;;;;;;;24.87;58.95;100560.78;7396731;19;1252;-41
2023/07/22 03:28:48;;;;;;;;;;;;;;;25.02;58.67;100577.94;7394320;19;1859;-41
2023/07/22 03:31:17;;;;;;;;;;;;;;;24.86;58.78;100554.53;7396219;19;1622;-41
2023/07/22 03:33:46;;;;;;;;;;;;;;;24.80;59.04;100563.38;7397311;19;1288;-41
2023/07/22 03:36:15;;;;;;;;;;;;;;;24.79;59.10;100580.63;7396173;19;1555;-41
2023/07/22 03:38:44;;;;;;;;;;;;;;;24.80;58.99;100566.06;7397396;19;1239;-41
2023/07/22 03:41:15;;;;;;;;;;;;;;;24.93;58.94;100566.34;7396012;19;1347;-41
2023/07/22 03:43:43;;;;;;;;;;;;;;;24.93;59.07;100571.75;7396554;19;1639;-40
2023/07/22 03:46:11;;;;;;;;;;;;;;;24.95;58.82;100558.88;7395312;19;1410;-40
2023/07/22 03:48:39;;;;;;;;;;;;;;;24.94;58.95;100557.19;7395249;19;1859;-41
2023/07/22 03:51:08;;;;;;;;;;;;;;;24.92;58.97;100559.22;7395932;19;1614;-41
2023/07/22 03:53:36;;;;;;;;;;;;;;;25.00;58.91;100569.16;7394745;19;1187;-40
2023/07/22 03:56:05;;;;;;;;;;;;;;;25.01;58.76;100579.81;7395734;19;1536;-41
2023/07/22 03:58:35;;;;;;;;;;;;;;;25.11;58.75;100579.56;7396042;19;1176;-40
2023/07/22 04:01:04;;;;;;;;;;;;;;;24.96;58.82;100571.38;7395201;19;1251;-41
2023/07/22 04:03:32;;;;;;;;;;;;;;;25.00;58.56;100561.03;7394974;19;1265;-41
2023/07/22 04:06:00;;;;;;;;;;;;;;;25.05;58.80;100565.91;7399613;19;1302;-41
2023/07/22 04:08:28;;;;;;;;;;;;;;;25.09;58.83;100559.97;7401808;19;1845;-41
2023/07/22 04:10:57;;;;;;;;;;;;;;;25.09;58.76;100554.56;7402618;19;1382;-41
2023/07/22 04:13:26;;;;;;;;;;;;;;;25.08;58.69;100552.03;7402815;19;1537;-41
2023/07/22 04:15:57;;;;;;;;;;;;;;;25.09;58.69;100559.09;7402868;19;1505;-40
2023/07/22 04:18:25;;;;;;;;;;;;;;;25.14;58.48;100562.13;7402268;19;1465;-41
2023/07/22 04:20:58;;;;;;;;;;;;;;;25.23;58.40;100544.84;7399382;19;1451;-41
2023/07/22 04:23:27;;;;;;;;;;;;;;;25.45;57.98;100536.88;7401651;19;1572;-41
2023/07/22 04:25:55;;;;;;;;;;;;;;;24.62;59.00;100539.31;7403604;19;1231;-41
2023/07/22 04:28:23;;;;;;;;;;;;;;;24.18;58.19;100529.03;7398643;19;1851;-40
2023/07/22 04:31:00;;;;;;;;;;;;;;;24.02;57.49;100527.25;7402234;19;1467;-41
2023/07/22 04:33:28;;;;;;;;;;;;;;;23.78;58.03;100518.22;7401934;19;1090;-41
2023/07/22 04:35:58;;;;;;;;;;;;;;;23.76;58.53;100536.41;7401487;19;1192;-40
2023/07/22 04:38:26;;;;;;;;;;;;;;;23.68;58.35;100539.13;7402053;19;1965;-41
2023/07/22 04:40:55;;;;;;;;;;;;;;;23.71;58.24;100559.53;7402384;19;1270;-40
2023/07/22 04:43:24;;;;;;;;;;;;;;;23.56;58.82;100537.81;7400025;19;1207;-41
2023/07/22 04:45:52;;;;;;;;;;;;;;;23.48;59.24;100538.66;7399321;19;1390;-41
2023/07/22 04:48:24;;;;;;;;;;;;;;;23.92;58.41;100542.81;6876026;19;9999818;-42
2023/07/22 04:50:53;;;;;;;;;;;;;;;23.99;58.31;100544.66;7389946;19;1556;-42
2023/07/22 04:53:21;;;;;;;;;;;;;;;23.98;58.46;100553.75;7387894;19;1602;-42
2023/07/22 04:55:50;;;;;;;;;;;;;;;24.04;58.27;100551.41;7388721;19;1544;-42
2023/07/22 04:58:20;;;;;;;;;;;;;;;23.99;58.83;100554.59;7391145;19;1450;-42
2023/07/22 05:00:48;;;;;;;;;;;;;;;23.90;58.56;100561.06;7390174;19;1501;-42
2023/07/22 05:03:17;;;;;;;;;;;;;;;23.85;58.34;100564.25;7393301;19;1482;-42
2023/07/22 05:05:49;;;;;;;;;;;;;;;23.80;58.08;100564.78;7390546;19;1493;-42
2023/07/22 05:08:17;;;;;;;;;;;;;;;23.92;57.60;100559.84;7389224;19;1834;-42
2023/07/22 05:10:45;;;;;;;;;;;;;;;23.89;58.37;100562.88;7389545;19;1459;-42
2023/07/22 05:13:14;;;;;;;;;;;;;;;24.04;57.85;100562.19;7390480;19;1508;-43
2023/07/22 05:15:42;;;;;;;;;;;;;;;23.91;58.11;100570.81;7388940;19;1426;-45
2023/07/22 05:18:10;;;;;;;;;;;;;;;23.72;58.61;100591.78;7391118;19;1427;-43
2023/07/22 05:20:40;;;;;;;;;;;;;;;23.78;58.47;100580.31;7390697;19;1497;-42
2023/07/22 05:23:11;;;;;;;;;;;;;;;23.77;58.35;100575.03;7395944;19;1282;-42
2023/07/22 05:25:40;;;;;;;;;;;;;;;23.69;58.74;100583.16;7397757;19;1904;-42
2023/07/22 05:28:08;;;;;;;;;;;;;;;23.70;59.48;100593.78;7398011;19;1853;-42
2023/07/22 05:30:36;;;;;;;;;;;;;;;23.87;59.84;100581.13;7398711;19;1486;-42
2023/07/22 05:33:04;;;;;;;;;;;;;;;23.88;62.19;100587.38;7397782;19;1325;-42
2023/07/22 05:35:33;;;;;;;;;;;;;;;24.01;62.29;100587.69;7396852;19;1406;-42
2023/07/22 05:38:03;;;;;;;;;;;;;;;23.88;62.16;100582.81;7400438;19;1558;-43
2023/07/22 05:40:35;;;;;;;;;;;;;;;23.84;61.99;100575.25;7395214;19;1454;-44
2023/07/22 05:43:03;;;;;;;;;;;;;;;23.97;61.04;100570.13;7397990;19;1595;-43
2023/07/22 05:45:31;;;;;;;;;;;;;;;23.77;61.25;100585.84;7394440;19;1524;-41
2023/07/22 05:47:59;;;;;;;;;;;;;;;23.93;61.30;100579.59;7395168;19;1424;-41
2023/07/22 05:50:28;;;;;;;;;;;;;;;24.13;61.09;100597.13;7396550;19;1845;-41
2023/07/22 05:52:56;;;;;;;;;;;;;;;24.09;61.02;100582.25;7399350;19;1549;-40
2023/07/22 05:55:24;;;;;;;;;;;;;;;24.24;60.52;100627.47;7399023;19;1306;-40
2023/07/22 05:57:55;;;;;;;;;;;;;;;24.09;60.08;100606.56;7400302;19;1502;-41
2023/07/22 06:00:23;;;;;;;;;;;;;;;23.94;60.48;100590.25;7397001;19;1179;-41
2023/07/22 06:02:52;;;;;;;;;;;;;;;24.02;60.51;100611.00;7400551;19;1241;-41
2023/07/22 06:05:20;;;;;;;;;;;;;;;23.93;60.74;100612.84;7400217;19;1624;-40
2023/07/22 06:07:48;;;;;;;;;;;;;;;24.03;60.60;100612.66;7398103;19;1135;-43
2023/07/22 06:10:17;;;;;;;;;;;;;;;23.93;61.42;100633.63;7396341;19;1870;-42
2023/07/22 06:12:46;;;;;;;;;;;;;;;23.58;62.14;100612.19;7397770;19;1811;-42
2023/07/22 06:15:17;;;;;;;;;;;;;;;23.81;62.40;100627.72;7397678;19;1703;-42
2023/07/22 06:17:46;;;;;;;;;;;;;;;23.83;62.79;100631.09;7397648;19;1309;-42
2023/07/22 06:20:14;;;;;;;;;;;;;;;23.89;63.47;100624.16;7395815;19;1501;-42
2023/07/22 06:22:43;;;;;;;;;;;;;;;24.06;63.44;100633.09;7397688;19;1506;-42
2023/07/22 06:25:11;;;;;;;;;;;;;;;24.51;61.96;100627.06;7394913;19;1178;-43
2023/07/22 06:27:40;;;;;;;;;;;;;;;24.89;60.65;100621.81;7394182;19;1402;-42
2023/07/22 06:30:09;;;;;;;;;;;;;;;25.01;60.64;100623.09;7395085;19;1862;-42
2023/07/22 06:32:41;;;;;;;;;;;;;;;25.09;60.35;100621.34;7396103;19;1595;-43
2023/07/22 06:35:10;;;;;;;;;;;;;;;25.21;59.85;100619.91;7396809;19;1566;-42
2023/07/22 06:37:39;;;;;;;;;;;;;;;25.11;60.88;100616.56;7396703;19;1260;-42
2023/07/22 06:40:08;;;;;;;;;;;;;;;25.08;60.47;100611.53;7395995;19;1190;-42
2023/07/22 06:42:36;;;;;;;;;;;;;;;25.22;60.45;100591.84;7394528;19;1266;-42
2023/07/22 06:45:05;;;;;;;;;;;;;;;25.17;61.62;100581.53;7390141;19;1155;-42
2023/07/22 06:47:33;;;;;;;;;;;;;;;25.29;60.97;100603.66;7391978;19;1545;-43
2023/07/22 06:50:04;;;;;;;;;;;;;;;25.23;60.05;100612.50;7387469;19;1863;-42
2023/07/22 06:52:32;;;;;;;;;;;;;;;25.14;59.32;100616.25;7391892;19;1596;-43
2023/07/22 06:55:01;;;;;;;;;;;;;;;25.21;59.99;100622.63;7391620;19;1230;-43
2023/07/22 06:57:29;;;;;;;;;;;;;;;25.20;60.85;100626.34;7397684;19;1256;-42
2023/07/22 06:59:57;;;;;;;;;;;;;;;25.21;59.82;100644.28;7395598;19;2049;-42
2023/07/22 07:02:26;;;;;;;;;;;;;;;25.17;58.94;100646.50;7395791;19;1304;-41
2023/07/22 07:04:54;;;;;;;;;;;;;;;25.22;58.29;100640.56;7396347;19;1617;-42
2023/07/22 07:07:25;;;;;;;;;;;;;;;25.01;57.71;100650.13;7397374;19;1153;-42
2023/07/22 07:09:54;;;;;;;;;;;;;;;25.04;59.44;100653.50;7393588;19;1849;-42
2023/07/22 07:12:22;;;;;;;;;;;;;;;24.68;61.59;100654.03;7395920;19;1151;-42
2023/07/22 07:14:52;;;;;;;;;;;;;;;24.34;61.52;100647.88;7393202;19;1475;-41
2023/07/22 07:17:23;;;;;;;;;;;;;;;24.14;62.40;100636.63;7393355;19;1536;-42
2023/07/22 07:19:52;;;;;;;;;;;;;;;24.18;62.20;100634.41;7392193;19;1496;-42
2023/07/22 07:22:20;;;;;;;;;;;;;;;24.16;62.23;100645.38;7394169;19;1499;-42
2023/07/22 07:24:51;;;;;;;;;;;;;;;24.32;62.89;100651.78;7393481;19;946;-42
2023/07/22 07:27:20;;;;;;;;;;;;;;;24.32;63.34;100655.31;7396388;19;1716;-42
2023/07/22 07:29:48;;;;;;;;;;;;;;;24.29;63.89;100650.28;7393721;19;1882;-43
2023/07/22 07:32:16;;;;;;;;;;;;;;;24.27;64.40;100670.34;7390841;19;1696;-43
2023/07/22 07:34:45;;;;;;;;;;;;;;;24.26;64.87;100674.91;7392082;19;1031;-42
2023/07/22 07:37:13;;;;;;;;;;;;;;;24.31;64.79;100641.97;7384681;19;1857;-43
2023/07/22 07:39:41;;;;;;;;;;;;;;;24.38;64.82;100642.97;7381370;19;1859;-42
2023/07/22 07:42:13;;;;;;;;;;;;;;;24.34;65.13;100637.06;7384185;19;1458;-42
2023/07/22 07:44:41;;;;;;;;;;;;;;;24.34;65.71;100630.81;7384803;19;1719;-42
2023/07/22 07:47:09;;;;;;;;;;;;;;;24.34;66.20;100628.13;7384305;19;1552;-42
2023/07/22 07:49:38;;;;;;;;;;;;;;;24.30;66.61;100630.31;7387374;19;1868;-43
2023/07/22 07:52:06;;;;;;;;;;;;;;;24.31;66.79;100633.84;7393576;19;1392;-42
2023/07/22 07:54:35;;;;;;;;;;;;;;;24.37;65.94;100630.47;7396223;19;1847;-42
2023/07/22 07:57:03;;;;;;;;;;;;;;;24.20;65.05;100618.88;7395993;19;1897;-43
2023/07/22 07:59:34;;;;;;;;;;;;;;;24.11;64.51;100623.44;7396155;19;1736;-43
2023/07/22 08:02:04;;;;;;;;;;;;;;;24.21;65.02;100623.25;7396173;19;1727;-42
2023/07/22 08:04:32;;;;;;;;;;;;;;;24.27;65.34;100619.00;7396906;19;1019;-43
2023/07/22 08:07:00;;;;;;;;;;;;;;;24.26;65.46;100607.38;7395424;19;1461;-43
2023/07/22 08:09:29;;;;;;;;;;;;;;;24.35;65.44;100611.75;7394259;19;1853;-43
2023/07/22 08:11:57;;;;;;;;;;;;;;;24.34;66.09;100611.91;7394825;19;1481;-42
2023/07/22 08:14:25;;;;;;;;;;;;;;;24.36;65.88;100613.41;7396097;19;1740;-42
2023/07/22 08:16:56;;;;;;;;;;;;;;;24.32;66.49;100609.38;7394149;19;1433;-43
2023/07/22 08:19:24;;;;;;;;;;;;;;;24.36;66.47;100601.75;7393491;19;1389;-43
2023/07/22 08:21:53;;;;;;;;;;;;;;;24.24;66.76;100590.50;7394992;19;1531;-42
2023/07/22 08:24:21;;;;;;;;;;;;;;;24.41;66.12;100593.94;7394848;19;1559;-43
2023/07/22 08:26:50;;;;;;;;;;;;;;;24.38;66.51;100589.75;7395724;19;1447;-43
2023/07/22 08:29:18;;;;;;;;;;;;;;;24.44;66.39;100580.09;7395239;19;1856;-43
2023/07/22 08:31:46;;;;;;;;;;;;;;;24.44;66.49;100569.28;7394541;19;1541;-43
2023/07/22 08:34:17;;;;;;;;;;;;;;;24.33;65.14;100585.88;7396902;19;1017;-43
2023/07/22 08:36:45;;;;;;;;;;;;;;;24.20;65.01;100594.56;7393908;19;1908;-43
2023/07/22 08:39:14;;;;;;;;;;;;;;;24.20;66.02;100598.09;7395258;19;1759;-43
2023/07/22 08:41:43;;;;;;;;;;;;;;;24.14;66.70;100597.97;7396335;19;1707;-43
2023/07/22 08:44:13;;;;;;;;;;;;;;;24.26;66.62;100606.53;7396752;19;1256;-42
2023/07/22 08:46:42;;;;;;;;;;;;;;;24.36;66.48;100607.16;7391716;19;1544;-43
2023/07/22 08:49:10;;;;;;;;;;;;;;;24.27;66.60;100576.59;7391247;19;1859;-43
2023/07/22 08:51:42;;;;;;;;;;;;;;;24.45;66.65;100573.66;7393064;19;1449;-42
2023/07/22 08:54:11;;;;;;;;;;;;;;;24.45;67.11;100603.38;7396791;19;1442;-42
2023/07/22 08:56:39;;;;;;;;;;;;;;;24.52;67.55;100582.78;7398265;19;1214;-42
2023/07/22 08:59:10;;;;;;;;;;;;;;;24.40;68.60;100578.78;7399325;19;1521;-42
2023/07/22 09:01:40;;;;;;;;;;;;;;;24.34;69.60;100576.78;7398283;19;1193;-42
2023/07/22 09:04:08;;;;;;;;;;;;;;;24.44;70.04;100582.81;7399502;19;1622;-42
2023/07/22 09:06:37;;;;;;;;;;;;;;;24.41;70.83;100591.25;7393739;19;1493;-43
2023/07/22 09:09:08;;;;;;;;;;;;;;;24.70;68.97;100579.00;7397534;19;1442;-42
2023/07/22 09:11:37;;;;;;;;;;;;;;;24.70;67.55;100579.81;7396750;19;1809;-43
2023/07/22 09:14:06;;;;;;;;;;;;;;;24.71;68.21;100588.78;7398155;19;1431;-42
2023/07/22 09:16:35;;;;;;;;;;;;;;;24.71;69.03;100595.03;7398670;19;1328;-42
2023/07/22 09:19:04;;;;;;;;;;;;;;;24.31;70.28;100599.59;7396412;19;1590;-43
2023/07/22 09:21:35;;;;;;;;;;;;;;;24.34;70.36;100609.19;7390630;19;1753;-42
2023/07/22 09:24:03;;;;;;;;;;;;;;;24.31;70.17;100604.13;7398101;19;1208;-42
2023/07/22 09:26:35;;;;;;;;;;;;;;;24.13;70.77;100597.13;7395139;19;1109;-43
2023/07/22 09:29:03;;;;;;;;;;;;;;;24.34;70.30;100587.59;7392457;19;1858;-42
2023/07/22 09:31:32;;;;;;;;;;;;;;;24.43;70.01;100573.00;7393164;19;1865;-43
2023/07/22 09:34:11;;;;;;;;;;;;;;;24.34;69.89;100574.91;7395707;19;972;-42
2023/07/22 09:36:51;;;;;;;;;;;;;;;24.42;69.55;100576.72;7395028;19;1936;-42
2023/07/22 09:39:19;;;;;;;;;;;;;;;24.42;69.87;100579.44;7391250;19;1863;-43
2023/07/22 09:41:52;;;;;;;;;;;;;;;24.38;69.72;100573.53;7391003;19;1841;-42
2023/07/22 09:44:21;;;;;;;;;;;;;;;24.44;69.46;100576.56;7389508;19;1083;-43
2023/07/22 09:46:50;;;;;;;;;;;;;;;24.43;69.26;100573.00;7390127;19;1034;-43
2023/07/22 09:49:20;;;;;;;;;;;;;;;24.27;67.78;100583.88;7389069;19;1757;-43
2023/07/22 09:51:48;;;;;;;;;;;;;;;24.11;67.84;100573.97;7388135;19;1878;-49
2023/07/22 09:54:17;;;;;;;;;;;;;;;24.32;68.04;100584.22;7396444;19;1630;-49
2023/07/22 09:56:46;;;;;;;;;;;;;;;24.42;68.56;100574.88;7398159;19;1404;-42
2023/07/22 09:59:20;;;;;;;;;;;;;;;24.34;68.87;100579.47;7400750;19;1692;-40
2023/07/22 10:01:50;;;;;;;;;;;;;;;24.38;68.89;100568.13;7398283;19;1389;-40
2023/07/22 10:04:19;;;;;;;;;;;;;;;24.41;68.99;100577.72;7398261;19;1076;-40
2023/07/22 10:06:48;;;;;;;;;;;;;;;24.55;68.90;100547.31;7398842;19;1862;-41
2023/07/22 10:09:18;;;;;;;;;;;;;;;24.47;68.90;100570.78;7399685;19;1851;-41
2023/07/22 10:11:46;;;;;;;;;;;;;;;24.37;69.51;100573.69;7396997;19;1843;-40
2023/07/22 10:14:15;;;;;;;;;;;;;;;24.37;69.84;100563.75;7398594;19;1743;-55
2023/07/22 10:16:46;;;;;;;;;;;;;;;24.25;70.43;100567.00;7397752;19;1771;-41
2023/07/22 10:19:15;;;;;;;;;;;;;;;24.21;70.72;100567.38;7396575;19;1762;-41
2023/07/22 10:21:43;;;;;;;;;;;;;;;24.27;70.67;100555.00;7396950;19;1763;-57
2023/07/22 10:24:12;;;;;;;;;;;;;;;24.40;69.56;100547.16;7396925;19;1750;-40
2023/07/22 10:26:42;;;;;;;;;;;;;;;24.27;68.19;100557.69;7398566;19;1067;-41
2023/07/22 10:29:11;;;;;;;;;;;;;;;24.13;67.95;100548.50;7397390;19;1944;-40
2023/07/22 10:31:40;;;;;;;;;;;;;;;24.28;68.65;100548.59;7395965;19;1840;-40
2023/07/22 10:34:11;;;;;;;;;;;;;;;24.30;69.41;100551.13;7398405;19;1056;-41
2023/07/22 10:36:39;;;;;;;;;;;;;;;24.43;68.97;100548.66;7398098;19;1942;-41
2023/07/22 10:39:07;;;;;;;;;;;;;;;24.57;69.15;100560.63;7398713;19;1345;-44
2023/07/22 10:41:40;;;;;;;;;;;;;;;24.39;69.57;100559.00;7397819;19;1703;-41
2023/07/22 10:44:09;;;;;;;;;;;;;;;24.37;70.00;100562.88;7397750;19;1692;-40
2023/07/22 10:46:39;;;;;;;;;;;;;;;24.37;69.35;100557.47;7397460;19;1672;-40
2023/07/22 10:49:17;;;;;;;;;;;;;;;24.27;70.02;100548.75;7396077;19;1456;-40
2023/07/22 10:51:50;;;;;;;;;;;;;;;24.33;69.98;100551.63;7396635;19;1858;-41
2023/07/22 10:54:34;;;;;;;;;;;;;;;24.28;70.05;100542.34;7396131;19;1652;-41
2023/07/22 10:57:06;;;;;;;;;;;;;;;24.34;69.80;100538.94;7397221;19;984;-41
2023/07/22 10:59:35;;;;;;;;;;;;;;;24.20;70.55;100543.22;7398214;19;1870;-56
2023/07/22 11:02:04;;;;;;;;;;;;;;;24.21;69.73;100545.75;7398602;19;1806;-40
2023/07/22 11:04:35;;;;;;;;;;;;;;;24.16;68.74;100552.69;7398671;19;1330;-40
2023/07/22 11:07:06;;;;;;;;;;;;;;;24.15;68.46;100541.06;7397884;19;1941;-40
2023/07/22 11:09:38;;;;;;;;;;;;;;;24.25;69.27;100542.69;7398488;19;1945;-41
2023/07/22 11:12:07;;;;;;;;;;;;;;;24.26;69.27;100545.22;7396830;19;1842;-41
2023/07/22 11:14:36;;;;;;;;;;;;;;;24.36;69.24;100536.91;7397543;19;1475;-40
2023/07/22 11:17:07;;;;;;;;;;;;;;;24.28;69.84;100529.66;7397252;19;1799;-40
2023/07/22 11:19:38;;;;;;;;;;;;;;;24.33;69.68;100535.41;7396152;19;1361;-40
2023/07/22 11:22:07;;;;;;;;;;;;;;;24.35;69.39;100538.75;7397395;19;1283;-40
2023/07/22 11:24:37;;;;;;;;;;;;;;;24.34;69.53;100545.19;7397113;19;1441;-40
2023/07/22 11:27:06;;;;;;;;;;;;;;;24.35;69.65;100546.00;7397472;19;1004;-41
2023/07/22 11:29:34;;;;;;;;;;;;;;;24.28;69.85;100545.03;7397945;19;1571;-40
2023/07/22 11:32:03;;;;;;;;;;;;;;;24.38;69.61;100551.06;7397862;19;1849;-40
2023/07/22 11:34:31;;;;;;;;;;;;;;;24.30;69.48;100559.22;7399685;19;955;-41
2023/07/22 11:37:02;;;;;;;;;;;;;;;24.31;69.93;100552.78;7398642;19;1871;-41
2023/07/22 11:39:32;;;;;;;;;;;;;;;24.24;69.98;100544.56;7395232;19;1921;-41
2023/07/22 11:42:02;;;;;;;;;;;;;;;24.30;69.82;100524.94;7398437;19;1736;-41
2023/07/22 11:44:31;;;;;;;;;;;;;;;24.28;69.82;100534.25;7397938;19;1858;-40
2023/07/22 11:47:00;;;;;;;;;;;;;;;24.21;69.76;100517.88;7398683;19;1822;-41
2023/07/22 11:49:29;;;;;;;;;;;;;;;24.28;69.73;100523.44;7397870;19;1099;-40
2023/07/22 11:51:56;;;;;;;;;;;;;;;24.27;69.89;100538.78;7396450;19;1860;-41
2023/07/22 11:54:27;;;;;;;;;;;;;;;24.33;69.54;100542.63;7397399;19;1940;-41
2023/07/22 11:56:55;;;;;;;;;;;;;;;24.37;69.56;100546.66;7397632;19;1811;-40
2023/07/22 11:59:36;;;;;;;;;;;;;;;24.30;69.59;100524.94;7397963;19;1735;-40
2023/07/22 12:02:06;;;;;;;;;;;;;;;24.28;69.93;100509.91;7397992;19;1383;-43
2023/07/22 12:04:34;;;;;;;;;;;;;;;24.38;69.50;100529.44;7398207;19;1048;-41
2023/07/22 12:07:03;;;;;;;;;;;;;;;24.34;69.88;100522.72;7397774;19;1867;-40
2023/07/22 12:09:34;;;;;;;;;;;;;;;24.36;69.48;100512.56;7397385;19;1956;-40
2023/07/22 12:12:03;;;;;;;;;;;;;;;24.37;69.16;100517.81;7396036;19;1848;-40
2023/07/22 12:14:37;;;;;;;;;;;;;;;24.28;69.73;100523.44;7397216;19;1732;-40
2023/07/22 12:17:11;;;;;;;;;;;;;;;24.30;69.75;100524.09;7397027;19;1754;-41
2023/07/22 12:19:39;;;;;;;;;;;;;;;24.30;69.58;100527.63;7394411;19;1728;-41
2023/07/22 12:22:10;;;;;;;;;;;;;;;24.28;69.94;100526.13;7396275;19;1711;-40
2023/07/22 12:24:41;;;;;;;;;;;;;;;24.31;69.49;100515.81;7396669;19;1231;-40
2023/07/22 12:27:09;;;;;;;;;;;;;;;24.25;69.84;100504.84;7401495;19;1032;-41
2023/07/22 12:29:37;;;;;;;;;;;;;;;24.26;69.59;100509.25;7403815;19;1595;-40
2023/07/22 12:32:06;;;;;;;;;;;;;;;24.35;68.99;100513.56;7402038;19;1860;-40
2023/07/22 12:34:34;;;;;;;;;;;;;;;24.29;69.37;100504.34;7405003;19;1836;-40
2023/07/22 12:37:02;;;;;;;;;;;;;;;24.24;69.49;100524.81;7404894;19;1583;-40
2023/07/22 12:39:31;;;;;;;;;;;;;;;24.26;69.58;100520.06;7403506;19;1875;-40
2023/07/22 12:42:02;;;;;;;;;;;;;;;24.35;69.09;100503.63;7404405;19;1766;-40
2023/07/22 12:44:30;;;;;;;;;;;;;;;24.24;69.60;100495.91;7404062;19;1460;-40
2023/07/22 12:46:58;;;;;;;;;;;;;;;24.36;69.33;100509.88;7404314;19;1763;-40
2023/07/22 12:49:27;;;;;;;;;;;;;;;24.36;69.21;100512.56;7404295;19;940;-40
2023/07/22 12:51:55;;;;;;;;;;;;;;;24.31;68.92;100498.75;7401736;19;1838;-40
2023/07/22 12:54:23;;;;;;;;;;;;;;;24.30;69.10;100499.78;7401978;19;1512;-40
2023/07/22 12:56:52;;;;;;;;;;;;;;;24.29;69.06;100508.88;7403811;19;1631;-40